createdAt,value
2022-10-23T00:01:45.907Z,98772.03
2022-10-23T00:04:17.926Z,98718.53
2022-10-23T00:06:46.747Z,98673.34
2022-10-23T00:09:17.041Z,98700.34
2022-10-23T00:11:47.829Z,98717.38
2022-10-23T00:14:18.104Z,98684.47
2022-10-23T00:16:46.801Z,98654.47
2022-10-23T00:19:16.209Z,98738.75
2022-10-23T00:21:44.650Z,98747.53
2022-10-23T00:24:12.787Z,98756.84
2022-10-23T00:26:40.913Z,98661.34
2022-10-23T00:29:10.066Z,98697.41
2022-10-23T00:31:38.617Z,98731.03
2022-10-23T00:34:08.530Z,98662.06
2022-10-23T00:36:38.650Z,98733.03
2022-10-23T00:39:07.550Z,98694.69
2022-10-23T00:41:35.691Z,98708.00
2022-10-23T00:44:11.292Z,98761.25
2022-10-23T00:46:40.777Z,98760.28
2022-10-23T00:49:09.844Z,98739.47
2022-10-23T00:51:42.258Z,98721.00
2022-10-23T00:54:26.334Z,98744.22
2022-10-23T00:56:54.895Z,98746.03
2022-10-23T00:59:22.998Z,98746.19
2022-10-23T01:01:51.221Z,98717.06
2022-10-23T01:04:20.211Z,98727.59
2022-10-23T01:06:58.816Z,98727.72
2022-10-23T01:09:32.899Z,98741.34
2022-10-23T01:12:11.004Z,98673.97
2022-10-23T01:14:44.328Z,98680.47
2022-10-23T01:17:22.754Z,98733.19
2022-10-23T01:20:02.542Z,98731.22
2022-10-23T01:22:55.657Z,98706.00
2022-10-23T01:25:36.813Z,98650.59
2022-10-23T01:28:11.736Z,98703.63
2022-10-23T01:30:43.072Z,98723.19
2022-10-23T01:33:15.275Z,98681.16
2022-10-23T01:35:50.023Z,98638.63
2022-10-23T01:38:28.418Z,98667.13
2022-10-23T01:41:46.473Z,98697.25
2022-10-23T01:44:21.624Z,98715.94
2022-10-23T01:46:53.500Z,98687.75
2022-10-23T01:49:24.002Z,98725.09
2022-10-23T01:51:58.173Z,98633.81
2022-10-23T01:54:32.874Z,98703.59
2022-10-23T01:57:03.636Z,98674.13
2022-10-23T01:59:38.021Z,98709.88
2022-10-23T02:02:08.340Z,98708.31
2022-10-23T02:04:41.046Z,98715.47
2022-10-23T02:07:09.560Z,98685.63
2022-10-23T02:09:37.958Z,98692.63
2022-10-23T02:12:10.606Z,98683.94
2022-10-23T02:14:47.842Z,98670.19
2022-10-23T02:17:22.721Z,98630.19
2022-10-23T02:19:57.989Z,98670.41
2022-10-23T02:22:31.411Z,98666.22
2022-10-23T02:25:08.732Z,98657.25
2022-10-23T02:27:43.340Z,98596.28
2022-10-23T02:30:16.329Z,98680.56
2022-10-23T02:32:48.269Z,98670.19
2022-10-23T02:35:16.962Z,98666.34
2022-10-23T02:37:45.197Z,98682.88
2022-10-23T02:40:13.660Z,98673.78
2022-10-23T02:42:48.085Z,98670.31
2022-10-23T02:45:27.118Z,98649.31
2022-10-23T02:48:01.858Z,98661.59
2022-10-23T02:50:37.290Z,98657.16
2022-10-23T02:53:10.974Z,98654.16
2022-10-23T02:55:52.076Z,98631.78
2022-10-23T02:58:25.484Z,98587.28
2022-10-23T03:01:01.429Z,98623.34
2022-10-23T03:03:33.633Z,98640.63
2022-10-23T03:06:01.792Z,98635.19
2022-10-23T03:08:29.830Z,98586.53
2022-10-23T03:10:58.015Z,98624.09
2022-10-23T03:13:26.054Z,98554.09
2022-10-23T03:15:55.551Z,98566.16
2022-10-23T03:18:23.654Z,98615.63
2022-10-23T03:20:51.585Z,98578.09
2022-10-23T03:23:19.538Z,98628.06
2022-10-23T03:25:47.484Z,98635.31
2022-10-23T03:28:15.410Z,98613.56
2022-10-23T03:30:43.390Z,98614.50
2022-10-23T03:33:12.726Z,98623.56
2022-10-23T03:35:40.754Z,98628.53
2022-10-23T03:38:08.720Z,98616.72
2022-10-23T03:40:36.801Z,98618.31
2022-10-23T03:43:04.773Z,98601.25
2022-10-23T03:45:32.796Z,98613.09
2022-10-23T03:48:01.039Z,98598.50
2022-10-23T03:50:30.396Z,98607.06
2022-10-23T03:52:58.602Z,98599.81
2022-10-23T03:55:27.220Z,98612.38
2022-10-23T03:57:55.404Z,98618.41
2022-10-23T04:00:23.775Z,98603.91
2022-10-23T04:02:51.934Z,98611.88
2022-10-23T04:05:19.952Z,98603.69
2022-10-23T04:07:49.308Z,98619.97
2022-10-23T04:10:17.312Z,98534.63
2022-10-23T04:12:45.468Z,98596.94
2022-10-23T04:15:13.690Z,98605.94
2022-10-23T04:17:41.682Z,98618.28
2022-10-23T04:20:10.444Z,98628.28
2022-10-23T04:22:38.390Z,98618.66
2022-10-23T04:25:08.377Z,98622.25
2022-10-23T04:27:36.302Z,98617.44
2022-10-23T04:30:05.723Z,98601.25
2022-10-23T04:32:33.685Z,98636.22
2022-10-23T04:35:01.765Z,98629.63
2022-10-23T04:37:29.760Z,98540.25
2022-10-23T04:39:57.762Z,98581.16
2022-10-23T04:44:55.225Z,98610.53
2022-10-23T04:47:23.272Z,98610.81
2022-10-23T04:49:51.302Z,98608.97
2022-10-23T04:52:19.366Z,98616.47
2022-10-23T04:54:49.179Z,98596.19
2022-10-23T04:57:17.177Z,98608.00
2022-10-23T04:59:46.567Z,98546.59
2022-10-23T05:02:14.527Z,98613.81
2022-10-23T05:04:42.531Z,98562.63
2022-10-23T05:07:10.566Z,98576.41
2022-10-23T05:09:38.578Z,98620.56
2022-10-23T05:12:06.689Z,98619.97
2022-10-23T05:14:34.755Z,98571.81
2022-10-23T05:17:09.491Z,98572.66
2022-10-23T05:19:43.145Z,98596.31
2022-10-23T05:22:12.519Z,98569.16
2022-10-23T05:24:40.465Z,98603.09
2022-10-23T05:27:08.488Z,98590.50
2022-10-23T05:29:36.438Z,98583.03
2022-10-23T05:32:08.193Z,98588.72
2022-10-23T05:34:38.353Z,98592.69
2022-10-23T05:37:09.202Z,98616.69
2022-10-23T05:39:37.519Z,98564.09
2022-10-23T05:42:05.798Z,98572.78
2022-10-23T05:44:33.820Z,98566.63
2022-10-23T05:47:01.824Z,98589.94
2022-10-23T05:49:31.152Z,98516.06
2022-10-23T05:51:59.137Z,98594.38
2022-10-23T05:54:27.385Z,98586.28
2022-10-23T05:56:57.291Z,98566.13
2022-10-23T05:59:25.246Z,98553.47
2022-10-23T06:01:53.291Z,98582.31
2022-10-23T06:04:21.396Z,98566.03
2022-10-23T06:06:50.826Z,98558.78
2022-10-23T06:09:18.725Z,98571.81
2022-10-23T06:11:46.790Z,98572.44
2022-10-23T06:14:14.757Z,98576.91
2022-10-23T06:16:42.789Z,98579.28
2022-10-23T06:19:12.216Z,98574.59
2022-10-23T06:21:40.839Z,98571.09
2022-10-23T06:24:10.480Z,98579.06
2022-10-23T06:26:38.480Z,98564.34
2022-10-23T06:29:07.878Z,98584.34
2022-10-23T06:31:35.889Z,98576.03
2022-10-23T06:34:03.838Z,98552.63
2022-10-23T06:36:31.838Z,98582.69
2022-10-23T06:41:29.153Z,98562.75
2022-10-23T06:43:57.391Z,98594.50
2022-10-23T06:46:26.999Z,98584.25
2022-10-23T06:48:54.993Z,98592.56
2022-10-23T06:51:24.022Z,98569.50
2022-10-23T06:53:52.002Z,98581.78
2022-10-23T06:56:20.156Z,98584.81
2022-10-23T06:58:50.225Z,98492.50
2022-10-23T07:01:18.592Z,98466.78
2022-10-23T07:03:47.206Z,98561.31
2022-10-23T07:06:15.385Z,98522.34
2022-10-23T07:08:43.548Z,98500.50
2022-10-23T07:11:13.256Z,98565.66
2022-10-23T07:13:42.744Z,98499.66
2022-10-23T07:16:14.876Z,98495.41
2022-10-23T07:18:43.090Z,98577.44
2022-10-23T07:21:11.786Z,98581.66
2022-10-23T07:23:40.059Z,98512.38
2022-10-23T07:26:10.158Z,98555.03
2022-10-23T07:28:39.134Z,98499.56
2022-10-23T07:31:07.360Z,98554.59
2022-10-23T07:33:37.391Z,98529.84
2022-10-23T07:36:06.451Z,98535.00
2022-10-23T07:38:34.828Z,98517.97
2022-10-23T07:41:03.198Z,98579.97
2022-10-23T07:46:00.384Z,98564.47
2022-10-23T07:48:29.009Z,98567.28
2022-10-23T07:51:08.880Z,98565.09
2022-10-23T07:53:37.518Z,98577.97
2022-10-23T07:56:15.930Z,98577.13
2022-10-23T09:06:20.492Z,98515.56
2022-10-23T09:38:44.557Z,98486.72
2022-10-23T09:41:21.035Z,98496.56
2022-10-23T09:44:06.660Z,98493.44
2022-10-23T09:46:47.261Z,98489.34
2022-10-23T09:49:24.790Z,98483.66
2022-10-23T09:52:04.337Z,98491.94
2022-10-23T09:54:53.105Z,98478.00
2022-10-23T09:57:30.180Z,98474.25
2022-10-23T10:00:08.683Z,98467.69
2022-10-23T10:02:46.272Z,98466.69
2022-10-23T10:05:28.377Z,98477.09
2022-10-23T10:08:04.994Z,98468.47
2022-10-23T10:10:43.062Z,98457.19
2022-10-23T10:13:30.109Z,98483.03
2022-10-23T10:16:04.845Z,98483.88
2022-10-23T10:18:41.408Z,98445.53
2022-10-23T10:25:04.488Z,98483.25
2022-10-23T10:27:45.484Z,98480.53
2022-10-23T10:30:17.688Z,98480.94
2022-10-23T10:32:57.254Z,98489.06
2022-10-23T10:35:37.436Z,98481.69
2022-10-23T10:38:28.696Z,98478.34
2022-10-23T10:41:32.945Z,98473.34
2022-10-23T10:44:23.361Z,98455.63
2022-10-23T10:47:01.764Z,98464.38
2022-10-23T10:53:02.821Z,98469.78
2022-10-23T10:55:39.992Z,98446.59
2022-10-23T10:58:35.841Z,98458.69
2022-10-23T11:01:21.035Z,98452.81
2022-10-23T11:04:03.998Z,98458.88
2022-10-23T11:06:46.535Z,98453.00
2022-10-23T11:09:36.972Z,98436.00
2022-10-23T11:12:08.201Z,98442.06
2022-10-23T11:14:38.702Z,98436.81
2022-10-23T11:17:18.305Z,98433.41
2022-10-23T11:21:13.799Z,98425.94
2022-10-23T11:24:18.202Z,98372.06
2022-10-23T11:27:22.874Z,98344.56
2022-10-23T11:30:08.947Z,98401.31
2022-10-23T11:32:58.025Z,98407.25
2022-10-23T11:35:51.472Z,98395.53
2022-10-23T11:38:27.613Z,98398.97
2022-10-23T11:41:06.576Z,98392.72
2022-10-23T11:43:51.961Z,98398.22
2022-10-23T11:46:37.080Z,98397.31
2022-10-23T11:49:07.688Z,98399.72
2022-10-23T11:51:38.574Z,98401.78
2022-10-23T11:54:23.067Z,98390.03
2022-10-23T11:57:13.089Z,98393.00
2022-10-23T12:00:03.031Z,98389.34
2022-10-23T12:02:38.116Z,98374.34
2022-10-23T12:05:19.452Z,98373.63
2022-10-23T12:07:56.370Z,98358.03
2022-10-23T12:10:31.487Z,98361.53
2022-10-23T12:13:04.076Z,98348.75
2022-10-23T12:15:35.262Z,98363.28
2022-10-23T12:18:14.864Z,98362.50
2022-10-23T12:20:52.213Z,98353.63
2022-10-23T12:23:43.210Z,98354.78
2022-10-23T12:26:54.908Z,98337.03
2022-10-23T12:29:41.267Z,98338.47
2022-10-23T12:32:25.348Z,98310.41
2022-10-23T12:35:19.851Z,98314.44
2022-10-23T12:38:06.585Z,98306.47
2022-10-23T12:40:34.794Z,98299.34
2022-10-23T12:43:05.474Z,98294.16
2022-10-23T12:45:42.806Z,98302.09
2022-10-23T12:48:25.675Z,98270.34
2022-10-23T12:51:25.632Z,98236.66
2022-10-23T12:53:57.707Z,98213.44
2022-10-23T12:56:35.863Z,98207.47
2022-10-23T12:59:09.859Z,98205.25
2022-10-23T13:01:43.424Z,98210.00
2022-10-23T13:04:23.925Z,98259.31
2022-10-23T13:06:54.969Z,98206.47
2022-10-23T13:09:38.727Z,98253.75
2022-10-23T13:12:13.505Z,98227.06
2022-10-23T13:14:57.806Z,98193.94
2022-10-23T13:17:39.749Z,98235.00
2022-10-23T13:20:27.225Z,98177.09
2022-10-23T13:23:02.590Z,98226.72
2022-10-23T13:25:34.047Z,98252.47
2022-10-23T13:28:26.371Z,98196.22
2022-10-23T13:31:25.410Z,98227.91
2022-10-23T13:34:18.829Z,98248.34
2022-10-23T13:36:58.177Z,98190.94
2022-10-23T13:39:31.955Z,98221.31
2022-10-23T13:42:08.026Z,98195.66
2022-10-23T13:44:37.703Z,98198.69
2022-10-23T13:47:06.011Z,98219.59
2022-10-23T13:49:37.053Z,98217.06
2022-10-23T13:52:05.252Z,98212.09
2022-10-23T13:54:33.515Z,98246.56
2022-10-23T13:57:01.946Z,98213.75
2022-10-23T13:59:30.230Z,98245.75
2022-10-23T14:01:58.553Z,98187.97
2022-10-23T14:04:26.837Z,98245.47
2022-10-23T14:06:58.684Z,98185.59
2022-10-23T14:09:26.923Z,98215.13
2022-10-23T14:11:55.066Z,98238.50
2022-10-23T14:14:23.401Z,98184.19
2022-10-23T14:16:52.886Z,98220.25
2022-10-23T14:19:21.158Z,98209.13
2022-10-23T14:21:49.415Z,98251.13
2022-10-23T14:24:19.076Z,98182.03
2022-10-23T14:26:47.237Z,98213.91
2022-10-23T14:29:23.011Z,98169.81
2022-10-23T14:31:52.871Z,98161.03
2022-10-23T14:34:21.106Z,98222.81
2022-10-23T14:36:50.210Z,98175.91
2022-10-23T14:39:20.725Z,98176.63
2022-10-23T14:41:50.849Z,98156.81
2022-10-23T14:44:19.206Z,98149.25
2022-10-23T14:46:47.271Z,98203.03
2022-10-23T14:49:20.422Z,98148.47
2022-10-23T14:51:48.516Z,98176.09
2022-10-23T14:54:16.982Z,98198.81
2022-10-23T14:56:46.555Z,98184.50
2022-10-23T14:59:15.331Z,98167.72
2022-10-23T15:01:48.049Z,98217.06
2022-10-23T15:04:17.268Z,98153.84
2022-10-23T15:06:47.260Z,98139.25
2022-10-23T15:09:16.505Z,98194.91
2022-10-23T15:11:57.002Z,98170.13
2022-10-23T15:14:25.239Z,98158.66
2022-10-23T15:16:53.241Z,98160.63
2022-10-23T15:19:21.493Z,98179.75
2022-10-23T15:21:50.211Z,98182.00
2022-10-23T15:24:18.832Z,98171.78
2022-10-23T15:26:48.778Z,98170.31
2022-10-23T15:29:17.773Z,98173.00
2022-10-23T15:31:53.301Z,98170.72
2022-10-23T15:34:23.780Z,98090.94
2022-10-23T15:36:53.316Z,98160.81
2022-10-23T15:39:23.452Z,98130.78
2022-10-23T15:41:55.932Z,98150.16
2022-10-23T15:44:27.195Z,98131.84
2022-10-23T15:46:57.062Z,98108.19
2022-10-23T15:49:25.949Z,98153.97
2022-10-23T15:51:54.405Z,98153.22
2022-10-23T15:54:22.774Z,98108.72
2022-10-23T15:56:58.175Z,98078.81
2022-10-23T15:59:28.733Z,98119.25
2022-10-23T16:01:57.301Z,98094.63
2022-10-23T16:04:25.977Z,98156.66
2022-10-23T16:06:54.124Z,98116.31
2022-10-23T16:09:22.509Z,98124.25
2022-10-23T16:11:50.628Z,98155.38
2022-10-23T16:14:20.213Z,98137.00
2022-10-23T16:16:48.222Z,98172.53
2022-10-23T16:19:16.375Z,98147.81
2022-10-23T16:21:45.155Z,98159.81
2022-10-23T16:24:13.244Z,98184.03
2022-10-23T16:26:41.344Z,98174.78
2022-10-23T16:29:11.898Z,98197.19
2022-10-23T16:31:42.037Z,98176.84
2022-10-23T16:34:11.072Z,98176.22
2022-10-23T16:36:39.650Z,98150.88
2022-10-23T16:39:09.321Z,98162.72
2022-10-23T16:47:34.752Z,98205.09
2022-10-23T16:50:03.116Z,98128.44
2022-10-23T16:52:32.013Z,98192.16
2022-10-23T16:55:00.136Z,98162.59
2022-10-23T16:57:28.475Z,98205.72
2022-10-23T16:59:57.977Z,98155.19
2022-10-23T17:02:27.679Z,98179.38
2022-10-23T17:04:58.665Z,98217.03
2022-10-23T17:07:26.894Z,98218.03
2022-10-23T17:09:54.959Z,98184.09
2022-10-23T17:12:23.165Z,98221.38
2022-10-23T17:14:51.436Z,98229.88
2022-10-23T17:17:19.530Z,98193.97
2022-10-23T17:20:14.054Z,98282.28
2022-10-23T17:22:53.908Z,98282.69
2022-10-23T17:25:21.915Z,98306.25
2022-10-23T17:27:49.851Z,98270.84
2022-10-23T17:30:17.994Z,98279.09
2022-10-23T17:32:46.415Z,98218.09
2022-10-23T17:35:16.509Z,98251.16
2022-10-23T17:37:45.155Z,98247.91
2022-10-23T17:42:41.598Z,98308.06
2022-10-23T17:45:10.742Z,98313.78
2022-10-23T17:47:40.163Z,98247.75
2022-10-23T17:50:12.249Z,98310.72
2022-10-23T17:52:42.323Z,98290.75
2022-10-23T17:55:11.057Z,98273.22
2022-10-23T17:57:39.032Z,98281.09
2022-10-23T18:00:08.029Z,98235.34
2022-10-23T18:02:36.026Z,98301.63
2022-10-23T18:05:04.056Z,98327.41
2022-10-23T18:07:32.039Z,98347.34
2022-10-23T18:10:01.457Z,98336.28
2022-10-23T18:12:29.585Z,98346.75
2022-10-23T18:14:57.551Z,98344.00
2022-10-23T18:17:25.542Z,98351.44
2022-10-23T18:19:56.441Z,98353.28
2022-10-23T18:22:29.329Z,98325.44
2022-10-23T18:24:57.426Z,98353.78
2022-10-23T18:27:27.002Z,98356.75
2022-10-23T18:29:54.990Z,98369.50
2022-10-23T18:32:23.132Z,98349.72
2022-10-23T18:34:51.162Z,98361.63
2022-10-23T18:37:19.113Z,98349.72
2022-10-23T18:39:47.087Z,98370.38
2022-10-23T18:42:15.031Z,98352.94
2022-10-23T18:44:49.913Z,98344.59
2022-10-23T18:47:18.083Z,98346.78
2022-10-23T18:49:46.164Z,98339.91
2022-10-23T18:52:14.163Z,98315.94
2022-10-23T18:54:42.185Z,98351.44
2022-10-23T18:57:10.272Z,98357.66
2022-10-23T18:59:38.286Z,98345.38
2022-10-23T19:02:08.175Z,98348.03
2022-10-23T19:04:36.535Z,98345.13
2022-10-23T19:07:04.610Z,98340.78
2022-10-23T19:09:32.593Z,98309.09
2022-10-23T19:12:02.525Z,98348.88
2022-10-23T19:14:37.486Z,98348.38
2022-10-23T19:17:10.847Z,98301.75
2022-10-23T19:19:45.012Z,98349.91
2022-10-23T19:22:14.987Z,98352.16
2022-10-23T19:24:46.789Z,98347.28
2022-10-23T19:27:15.410Z,98343.91
2022-10-23T19:29:46.320Z,98317.88
2022-10-23T19:32:16.092Z,98283.31
2022-10-23T19:34:44.165Z,98297.28
2022-10-23T19:39:45.456Z,98344.63
2022-10-23T19:42:13.854Z,98355.38
2022-10-23T19:44:41.856Z,98317.53
2022-10-23T19:47:09.831Z,98357.06
2022-10-23T19:49:39.364Z,98353.28
2022-10-23T19:52:07.362Z,98356.19
2022-10-23T19:54:36.015Z,98372.88
2022-10-23T19:57:03.996Z,98362.78
2022-10-23T19:59:32.047Z,98351.50
2022-10-23T20:02:00.232Z,98372.19
2022-10-23T20:04:28.977Z,98372.94
2022-10-23T20:06:58.443Z,98368.28
2022-10-23T20:09:26.593Z,98359.31
2022-10-23T20:11:55.717Z,98381.72
2022-10-23T20:14:24.572Z,98383.09
2022-10-23T20:16:56.061Z,98388.09
2022-10-23T20:19:25.443Z,98374.16
2022-10-23T20:21:54.252Z,98364.53
2022-10-23T20:24:23.780Z,98346.06
2022-10-23T20:26:55.129Z,98390.44
2022-10-23T20:29:25.030Z,98308.72
2022-10-23T20:31:54.066Z,98348.25
2022-10-23T20:34:22.180Z,98401.44
2022-10-23T20:36:51.515Z,98328.22
2022-10-23T20:39:21.465Z,98332.72
2022-10-23T20:41:51.019Z,98426.75
2022-10-23T20:44:19.748Z,98417.59
2022-10-23T20:46:48.463Z,98400.88
2022-10-23T20:49:19.647Z,98378.56
2022-10-23T20:51:55.086Z,98384.41
2022-10-23T20:54:26.700Z,98434.19
2022-10-23T20:57:00.286Z,98446.41
2022-10-23T20:59:34.110Z,98439.97
2022-10-23T21:02:03.638Z,98393.28
2022-10-23T21:04:38.195Z,98390.72
2022-10-23T21:07:10.831Z,98369.38
2022-10-23T21:09:40.088Z,98393.69
2022-10-23T21:12:10.390Z,98415.28
2022-10-23T21:14:39.735Z,98378.69
2022-10-23T21:17:12.467Z,98406.66
2022-10-23T21:19:40.794Z,98380.69
2022-10-23T21:22:10.266Z,98374.06
2022-10-23T21:24:38.444Z,98365.34
2022-10-23T21:27:07.271Z,98418.94
2022-10-23T21:29:39.557Z,98410.13
2022-10-23T21:32:09.955Z,98372.13
2022-10-23T21:34:39.219Z,98370.66
2022-10-23T21:37:13.834Z,98397.72
2022-10-23T21:39:45.968Z,98412.00
2022-10-23T21:42:16.496Z,98400.28
2022-10-23T21:44:46.264Z,98371.06
2022-10-23T21:47:14.675Z,98423.56
2022-10-23T21:49:42.878Z,98421.47
2022-10-23T21:52:11.740Z,98406.22
2022-10-23T21:54:40.499Z,98351.56
2022-10-23T21:57:15.077Z,98389.47
2022-10-23T21:59:43.171Z,98357.00
2022-10-23T22:02:12.962Z,98402.19
2022-10-23T22:04:41.868Z,98380.78
2022-10-23T22:07:15.101Z,98398.72
2022-10-23T22:09:44.234Z,98405.81
2022-10-23T22:12:13.696Z,98399.13
2022-10-23T22:14:42.604Z,98408.84
2022-10-23T22:17:12.172Z,98358.19
2022-10-23T22:19:40.289Z,98399.31
2022-10-23T22:22:08.444Z,98417.34
2022-10-23T22:24:37.740Z,98383.19
2022-10-23T22:27:05.827Z,98359.84
2022-10-23T22:29:33.907Z,98357.84
2022-10-23T22:32:01.998Z,98335.31
2022-10-23T22:34:51.729Z,98338.28
2022-10-23T22:37:19.994Z,98421.88
2022-10-23T22:39:51.945Z,98336.41
2022-10-23T22:42:20.137Z,98402.56
2022-10-23T22:44:48.198Z,98345.91
2022-10-23T22:47:16.323Z,98339.38
2022-10-23T22:49:45.778Z,98359.56
2022-10-23T22:52:13.874Z,98391.81
2022-10-23T22:54:41.929Z,98398.34
2022-10-23T22:57:10.012Z,98317.84
2022-10-23T22:59:38.060Z,98329.34
2022-10-23T23:02:06.418Z,98386.75
2022-10-23T23:04:38.703Z,98313.03
2022-10-23T23:07:09.599Z,98388.34
2022-10-23T23:09:39.911Z,98394.44
2022-10-23T23:12:09.072Z,98382.22
2022-10-23T23:14:37.268Z,98386.03
2022-10-23T23:17:06.052Z,98350.41
2022-10-23T23:19:34.329Z,98375.50
2022-10-23T23:22:02.647Z,98380.16
2022-10-23T23:24:32.241Z,98369.50
2022-10-23T23:27:00.414Z,98323.34
2022-10-23T23:29:29.680Z,98347.66
2022-10-23T23:31:58.083Z,98301.84
2022-10-23T23:34:26.241Z,98371.94
2022-10-23T23:36:54.363Z,98355.72
2022-10-23T23:39:22.420Z,98332.22
2022-10-23T23:41:51.882Z,98358.34
2022-10-23T23:44:19.940Z,98378.88
2022-10-23T23:46:48.018Z,98327.59
2022-10-23T23:49:16.048Z,98320.81
2022-10-23T23:51:44.136Z,98324.06
2022-10-23T23:54:12.247Z,98395.22
2022-10-23T23:56:40.383Z,98317.16
2022-10-23T23:59:09.884Z,98364.06
